TimeEST,TemperatureF,Dew PointF,Humidity,Sea Level PressureIn,VisibilityMPH,Wind Direction,Wind SpeedMPH,Gust SpeedMPH,PrecipitationIn,Events,Conditions,WindDirDegrees,DateUTC
12:19 AM,33.8,32.0,93,29.82,3.0,ENE,5.8,-,N/A,,Overcast,60,2013-02-24 05:19:00
12:53 AM,34.0,32.0,92,29.82,3.0,NE,3.5,-,N/A,,Overcast,40,2013-02-24 05:53:00
1:53 AM,34.0,32.0,92,29.81,4.0,Calm,Calm,-,N/A,,Overcast,0,2013-02-24 06:53:00
2:07 AM,35.6,32.0,87,29.81,4.0,Calm,Calm,-,N/A,,Overcast,0,2013-02-24 07:07:00
2:26 AM,35.6,32.0,87,29.80,2.5,Calm,Calm,-,N/A,,Overcast,0,2013-02-24 07:26:00
2:53 AM,35.1,32.0,89,29.80,2.0,Calm,Calm,-,N/A,,Overcast,0,2013-02-24 07:53:00
3:53 AM,35.1,32.0,89,29.80,2.5,NW,3.5,-,N/A,,Overcast,310,2013-02-24 08:53:00
4:02 AM,35.6,32.0,87,29.79,3.0,NW,3.5,-,N/A,,Overcast,310,2013-02-24 09:02:00
4:53 AM,35.1,32.0,89,29.80,3.0,NW,4.6,-,0.00,,Overcast,320,2013-02-24 09:53:00
5:07 AM,35.6,32.0,87,29.78,2.5,NNW,3.5,-,0.00,Rain,Light Rain,340,2013-02-24 10:07:00
5:15 AM,35.6,32.0,87,29.78,4.0,Calm,Calm,-,0.00,Rain,Light Rain,0,2013-02-24 10:15:00
5:53 AM,35.1,32.0,89,29.79,7.0,Calm,Calm,-,0.00,,Overcast,0,2013-02-24 10:53:00
6:31 AM,35.6,32.0,87,29.76,10.0,Calm,Calm,-,N/A,,Overcast,0,2013-02-24 11:31:00
6:53 AM,35.1,32.0,89,29.78,10.0,Calm,Calm,-,N/A,,Overcast,0,2013-02-24 11:53:00
7:31 AM,35.6,32.0,87,29.76,10.0,Calm,Calm,-,N/A,,Overcast,0,2013-02-24 12:31:00
7:53 AM,37.0,32.0,82,29.77,10.0,Calm,Calm,-,N/A,,Overcast,0,2013-02-24 12:53:00
8:14 AM,37.4,33.8,87,29.75,10.0,NNW,3.5,-,N/A,,Overcast,330,2013-02-24 13:14:00
8:53 AM,37.0,34.0,89,29.77,10.0,WNW,3.5,-,N/A,,Overcast,300,2013-02-24 13:53:00
9:37 AM,37.4,33.8,87,29.76,10.0,WNW,4.6,-,N/A,,Overcast,300,2013-02-24 14:37:00
9:53 AM,37.0,35.1,93,29.77,5.0,NW,3.5,-,N/A,,Overcast,310,2013-02-24 14:53:00
10:36 AM,39.2,35.6,87,29.75,8.0,NNW,5.8,-,N/A,,Overcast,330,2013-02-24 15:36:00
10:53 AM,39.9,35.1,83,29.77,10.0,NW,4.6,-,N/A,,Overcast,310,2013-02-24 15:53:00
11:53 AM,39.9,36.0,86,29.76,9.0,NNW,8.1,-,N/A,,Overcast,340,2013-02-24 16:53:00
12:44 PM,39.2,35.6,87,29.74,10.0,NNW,9.2,-,0.00,,Overcast,330,2013-02-24 17:44:00
12:53 PM,39.9,35.1,83,29.75,10.0,NW,4.6,-,0.00,,Overcast,310,2013-02-24 17:53:00
1:02 PM,39.2,35.6,87,29.74,10.0,North,10.4,-,N/A,,Overcast,350,2013-02-24 18:02:00
1:53 PM,41.0,33.1,73,29.74,10.0,NNW,13.8,20.7,N/A,,Overcast,330,2013-02-24 18:53:00
2:53 PM,42.1,33.1,70,29.75,10.0,NNW,10.4,16.1,N/A,,Overcast,330,2013-02-24 19:53:00
3:44 PM,41.0,32.0,70,29.75,10.0,NNW,8.1,-,N/A,,Overcast,340,2013-02-24 20:44:00
3:53 PM,39.9,32.0,73,29.76,10.0,NNW,5.8,-,N/A,,Overcast,330,2013-02-24 20:53:00
4:50 PM,37.4,30.2,75,29.78,8.0,West,10.4,-,0.00,Rain,Light Rain,280,2013-02-24 21:50:00
4:53 PM,37.9,30.0,73,29.79,9.0,West,9.2,-,0.00,Rain,Light Rain,280,2013-02-24 21:53:00
5:43 PM,35.6,30.2,81,29.82,7.0,NNW,6.9,-,0.01,,Overcast,330,2013-02-24 22:43:00
5:53 PM,36.0,30.9,82,29.83,9.0,NW,8.1,-,0.01,,Overcast,320,2013-02-24 22:53:00
6:00 PM,35.6,30.2,81,29.83,8.0,NNW,5.8,-,N/A,,Overcast,340,2013-02-24 23:00:00
6:53 PM,35.1,28.0,76,29.86,10.0,WNW,10.4,18.4,N/A,,Overcast,300,2013-02-24 23:53:00
8:26 PM,32.0,28.4,87,29.90,2.0,NW,5.8,-,0.00,Snow,Light Snow,310,2013-02-25 01:26:00
8:40 PM,32.0,28.4,87,29.91,3.0,WNW,5.8,-,0.00,Snow,Light Snow,300,2013-02-25 01:40:00
8:51 PM,32.0,28.4,87,29.91,3.0,NW,5.8,-,0.00,Snow,Light Snow,320,2013-02-25 01:51:00
8:53 PM,32.0,28.0,85,29.92,3.0,NW,6.9,-,0.00,Snow,Light Snow,320,2013-02-25 01:53:00
9:34 PM,32.0,28.4,87,29.92,2.5,NW,6.9,-,0.00,Snow,Light Snow,310,2013-02-25 02:34:00
9:53 PM,30.9,28.0,89,29.94,3.0,NW,4.6,-,0.00,Snow,Light Snow,310,2013-02-25 02:53:00
10:53 PM,32.0,27.0,82,29.94,10.0,NW,3.5,-,0.00,,Overcast,320,2013-02-25 03:53:00
11:53 PM,32.0,25.0,75,29.96,10.0,NNW,4.6,-,N/A,,Overcast,330,2013-02-25 04:53:00